createdAt,value
2017-08-21T00:00:24.958Z,83.0
2017-08-21T00:01:26.356Z,83.1
2017-08-21T00:02:31.810Z,83.3
2017-08-21T00:03:32.271Z,82.9
2017-08-21T00:04:33.668Z,83.4
2017-08-21T00:05:35.063Z,83.1
2017-08-21T00:06:36.472Z,83.3
2017-08-21T00:07:37.855Z,82.8
2017-08-21T00:08:39.257Z,83.4
2017-08-21T00:09:43.811Z,83.7
2017-08-21T00:10:44.403Z,83.1
2017-08-21T00:11:45.799Z,82.5
2017-08-21T00:12:47.195Z,82.8
2017-08-21T00:13:48.590Z,82.5
2017-08-21T00:14:49.995Z,82.7
2017-08-21T00:15:51.387Z,82.9
2017-08-21T00:16:55.011Z,83.3
2017-08-21T00:17:56.407Z,83.7
2017-08-21T00:18:57.807Z,83.8
2017-08-21T00:19:59.202Z,84.7
2017-08-21T00:21:00.595Z,84.8
2017-08-21T00:22:01.992Z,84.2
2017-08-21T00:23:03.389Z,83.7
2017-08-21T00:24:07.817Z,82.8
2017-08-21T00:25:08.405Z,82.9
2017-08-21T00:26:09.804Z,83.0
2017-08-21T00:27:11.199Z,83.4
2017-08-21T00:28:12.594Z,83.0
2017-08-21T00:29:13.992Z,83.3
2017-08-21T00:30:15.388Z,83.7
2017-08-21T00:31:19.874Z,83.4
2017-08-21T00:32:21.268Z,82.8
2017-08-21T00:33:22.667Z,83.2
2017-08-21T00:34:24.062Z,83.1
2017-08-21T00:35:25.458Z,83.6
2017-08-21T00:36:26.856Z,84.0
2017-08-21T00:37:28.251Z,84.0
2017-08-21T00:38:31.989Z,83.9
2017-08-21T00:39:33.387Z,83.4
2017-08-21T00:40:34.786Z,84.1
2017-08-21T00:41:36.179Z,84.3
2017-08-21T00:42:37.576Z,84.6
2017-08-21T00:43:38.971Z,84.7
2017-08-21T00:44:40.366Z,84.8
2017-08-21T00:45:43.954Z,83.8
2017-08-21T00:46:45.354Z,84.0
2017-08-21T00:47:46.751Z,84.4
2017-08-21T00:48:48.145Z,84.5
2017-08-21T00:49:49.537Z,84.2
2017-08-21T00:50:50.936Z,84.3
2017-08-21T00:51:52.330Z,84.6
2017-08-21T00:52:53.728Z,84.3
2017-08-21T00:53:55.128Z,84.3
2017-08-21T00:54:56.525Z,84.0
2017-08-21T00:55:57.924Z,84.2
2017-08-21T00:56:59.315Z,84.2
2017-08-21T00:58:00.713Z,84.5
2017-08-21T00:59:02.109Z,84.8
2017-08-21T01:00:05.040Z,84.7
2017-08-21T01:01:06.440Z,84.5
2017-08-21T01:02:07.833Z,84.5
2017-08-21T01:03:09.227Z,84.0
2017-08-21T01:04:10.621Z,84.3
2017-08-21T01:05:12.016Z,84.2
2017-08-21T01:06:13.415Z,84.8
2017-08-21T01:07:14.812Z,84.0
2017-08-21T01:08:16.214Z,84.4
2017-08-21T01:09:17.611Z,83.8
2017-08-21T01:10:19.006Z,83.6
2017-08-21T01:11:20.404Z,83.4
2017-08-21T01:12:21.798Z,83.7
2017-08-21T01:13:23.197Z,83.7
2017-08-21T01:14:24.592Z,83.3
2017-08-21T01:15:25.993Z,82.9
2017-08-21T01:16:27.392Z,83.0
2017-08-21T01:17:28.785Z,82.9
2017-08-21T01:18:30.227Z,83.0
2017-08-21T01:19:31.622Z,83.0
2017-08-21T01:20:33.695Z,82.7
2017-08-21T01:21:35.095Z,83.7
2017-08-21T01:22:36.492Z,84.5
2017-08-21T01:23:37.891Z,84.2
2017-08-21T01:24:39.286Z,84.3
2017-08-21T01:25:40.682Z,84.4
2017-08-21T01:26:42.080Z,84.6
2017-08-21T01:27:45.012Z,84.2
2017-08-21T01:28:46.407Z,84.8
2017-08-21T01:29:47.804Z,84.7
2017-08-21T01:30:49.204Z,84.4
2017-08-21T01:31:50.598Z,84.6
2017-08-21T01:32:51.993Z,84.6
2017-08-21T01:33:53.391Z,84.7
2017-08-21T01:34:54.786Z,84.7
2017-08-21T01:35:56.182Z,84.4
2017-08-21T01:36:57.583Z,85.0
2017-08-21T01:37:58.984Z,84.8
2017-08-21T01:39:00.374Z,84.5
2017-08-21T01:40:01.768Z,84.5
2017-08-21T01:41:03.164Z,84.5
2017-08-21T01:42:06.034Z,84.0
2017-08-21T01:43:07.429Z,84.5
2017-08-21T01:44:08.829Z,84.4
2017-08-21T01:45:10.228Z,84.7
2017-08-21T01:46:11.623Z,84.6
2017-08-21T01:47:13.019Z,84.3
2017-08-21T01:48:14.420Z,84.3
2017-08-21T01:49:17.305Z,84.2
2017-08-21T01:50:18.703Z,83.9
2017-08-21T01:51:20.102Z,83.9
2017-08-21T01:52:21.502Z,84.2
2017-08-21T01:53:22.895Z,83.9
2017-08-21T01:54:24.292Z,84.7
2017-08-21T01:55:25.690Z,84.2
2017-08-21T01:56:27.084Z,84.2
2017-08-21T01:57:28.479Z,83.9
2017-08-21T01:58:29.891Z,84.3
2017-08-21T01:59:31.280Z,84.3
2017-08-21T02:00:32.672Z,84.5
2017-08-21T02:01:34.072Z,84.4
2017-08-21T02:02:35.463Z,84.2
2017-08-21T02:03:36.866Z,84.2
2017-08-21T02:04:38.257Z,84.4
2017-08-21T02:05:39.655Z,84.4
2017-08-21T02:06:41.053Z,84.3
2017-08-21T02:07:42.449Z,85.1
2017-08-21T02:08:43.842Z,84.4
2017-08-21T02:09:45.241Z,84.2
2017-08-21T02:10:46.632Z,84.2
2017-08-21T02:11:48.032Z,84.1
2017-08-21T02:12:49.436Z,84.3
2017-08-21T02:13:50.834Z,84.6
2017-08-21T02:14:52.240Z,84.7
2017-08-21T02:15:53.639Z,84.6
2017-08-21T02:16:55.035Z,84.6
2017-08-21T02:17:56.429Z,84.5
2017-08-21T02:18:57.826Z,85.7
2017-08-21T02:19:59.226Z,85.9
2017-08-21T02:21:00.626Z,85.7
2017-08-21T02:22:02.018Z,85.0
2017-08-21T02:23:03.414Z,86.1
2017-08-21T02:24:04.811Z,86.0
2017-08-21T02:25:06.208Z,86.0
2017-08-21T02:26:07.601Z,85.8
2017-08-21T02:27:09.004Z,85.2
2017-08-21T02:28:10.400Z,86.0
2017-08-21T02:29:11.796Z,86.1
2017-08-21T02:30:13.190Z,85.8
2017-08-21T02:31:14.585Z,85.8
2017-08-21T02:32:15.982Z,86.3
2017-08-21T02:33:17.379Z,86.9
2017-08-21T02:34:18.778Z,86.9
2017-08-21T02:35:20.173Z,86.7
2017-08-21T02:36:21.570Z,86.6
2017-08-21T02:37:22.965Z,86.9
2017-08-21T02:38:24.367Z,86.6
2017-08-21T02:39:25.770Z,86.7
2017-08-21T02:40:27.153Z,86.7
2017-08-21T02:41:28.552Z,86.6
2017-08-21T02:42:29.950Z,86.7
2017-08-21T02:43:31.348Z,86.8
2017-08-21T02:44:32.740Z,86.9
2017-08-21T02:45:34.960Z,86.8
2017-08-21T02:46:36.356Z,86.9
2017-08-21T02:47:37.752Z,86.7
2017-08-21T02:48:39.150Z,86.9
2017-08-21T02:49:40.547Z,86.9
2017-08-21T02:50:41.941Z,86.8
2017-08-21T02:51:43.337Z,87.2
2017-08-21T02:52:44.734Z,86.8
2017-08-21T02:53:46.133Z,87.1
2017-08-21T02:54:47.528Z,86.9
2017-08-21T02:55:48.926Z,86.7
2017-08-21T02:56:50.321Z,86.1
2017-08-21T02:57:51.710Z,86.7
2017-08-21T02:58:53.111Z,86.1
2017-08-21T02:59:54.509Z,86.6
2017-08-21T03:00:55.903Z,86.3
2017-08-21T03:01:57.303Z,85.9
2017-08-21T03:02:58.698Z,86.4
2017-08-21T03:04:00.098Z,86.4
2017-08-21T03:05:01.493Z,86.7
2017-08-21T03:06:02.884Z,86.9
2017-08-21T03:07:04.282Z,87.0
2017-08-21T03:08:05.677Z,87.1
2017-08-21T03:09:07.077Z,87.2
2017-08-21T03:10:08.474Z,87.3
2017-08-21T03:11:09.869Z,87.4
2017-08-21T03:12:11.263Z,87.4
2017-08-21T03:13:12.657Z,87.8
2017-08-21T03:14:14.054Z,86.9
2017-08-21T03:15:15.448Z,87.3
2017-08-21T03:16:16.844Z,87.5
2017-08-21T03:17:18.242Z,87.0
2017-08-21T03:18:19.638Z,87.3
2017-08-21T03:19:21.033Z,87.2
2017-08-21T03:20:22.430Z,87.2
2017-08-21T03:21:23.825Z,87.1
2017-08-21T03:22:25.222Z,86.9
2017-08-21T03:23:26.617Z,87.1
2017-08-21T03:24:28.018Z,87.3
2017-08-21T03:25:29.415Z,87.5
2017-08-21T03:26:30.812Z,87.6
2017-08-21T03:27:32.207Z,87.4
2017-08-21T03:28:33.600Z,87.4
2017-08-21T03:29:34.996Z,87.4
2017-08-21T03:30:36.393Z,87.5
2017-08-21T03:31:37.790Z,87.3
2017-08-21T03:32:39.187Z,87.8
2017-08-21T03:33:40.583Z,87.6
2017-08-21T03:34:41.975Z,87.6
2017-08-21T03:35:43.368Z,87.2
2017-08-21T03:36:44.766Z,87.3
2017-08-21T03:37:46.162Z,87.4
2017-08-21T03:38:47.559Z,87.3
2017-08-21T03:39:48.953Z,88.2
2017-08-21T03:40:50.350Z,88.1
2017-08-21T03:41:51.745Z,88.2
2017-08-21T03:42:53.140Z,87.4
2017-08-21T03:43:54.536Z,87.6
2017-08-21T03:44:55.931Z,88.3
2017-08-21T03:45:57.331Z,88.0
2017-08-21T03:46:58.729Z,88.0
2017-08-21T03:48:00.123Z,88.0
2017-08-21T03:49:01.520Z,88.4
2017-08-21T03:50:02.916Z,88.0
2017-08-21T03:51:04.312Z,88.0
2017-08-21T03:52:05.711Z,88.3
2017-08-21T03:53:07.107Z,88.3
2017-08-21T03:54:08.507Z,88.7
2017-08-21T03:55:09.935Z,88.0
2017-08-21T03:56:11.326Z,87.9
2017-08-21T03:57:12.722Z,87.8
2017-08-21T03:58:14.118Z,87.8
2017-08-21T03:59:15.512Z,87.3
2017-08-21T04:00:16.911Z,87.8
2017-08-21T04:01:18.306Z,87.8
2017-08-21T04:02:19.702Z,87.3
2017-08-21T04:03:21.097Z,87.0
2017-08-21T04:04:22.491Z,87.5
2017-08-21T04:05:23.886Z,88.2
2017-08-21T04:06:25.282Z,88.0
2017-08-21T04:07:26.680Z,87.8
2017-08-21T04:08:28.077Z,88.0
2017-08-21T04:09:29.469Z,88.2
2017-08-21T04:10:30.864Z,88.4
2017-08-21T04:11:32.282Z,87.8
2017-08-21T04:12:33.664Z,88.4
2017-08-21T04:13:35.052Z,87.5
2017-08-21T04:14:36.452Z,88.1
2017-08-21T04:15:37.849Z,88.4
2017-08-21T04:16:39.246Z,88.1
2017-08-21T04:17:40.641Z,87.9
2017-08-21T04:18:42.040Z,88.2
2017-08-21T04:19:43.434Z,88.1
2017-08-21T04:20:44.832Z,88.2
2017-08-21T04:21:46.229Z,88.3
2017-08-21T04:22:47.633Z,88.3
2017-08-21T04:23:49.022Z,88.5
2017-08-21T04:24:50.417Z,88.2
2017-08-21T04:25:51.815Z,88.2
2017-08-21T04:26:53.209Z,87.7
2017-08-21T04:27:54.607Z,88.1
2017-08-21T04:28:56.004Z,88.0
2017-08-21T04:29:58.545Z,88.4
2017-08-21T04:30:59.940Z,88.5
2017-08-21T04:32:01.339Z,89.2
2017-08-21T04:33:02.732Z,88.8
2017-08-21T04:34:04.127Z,89.0
2017-08-21T04:35:05.524Z,88.7
2017-08-21T04:36:06.921Z,89.6
2017-08-21T04:37:08.320Z,88.9
2017-08-21T04:38:09.734Z,89.3
2017-08-21T04:39:11.127Z,88.8
2017-08-21T04:40:12.527Z,89.2
2017-08-21T04:41:13.925Z,89.4
2017-08-21T04:42:15.321Z,89.0
2017-08-21T04:43:16.722Z,89.2
2017-08-21T04:44:18.120Z,89.2
2017-08-21T04:45:19.519Z,89.1
2017-08-21T04:46:20.914Z,89.1
2017-08-21T04:47:22.311Z,89.0
2017-08-21T04:48:23.711Z,89.1
2017-08-21T04:49:25.110Z,89.7
2017-08-21T04:50:26.510Z,89.6
2017-08-21T04:51:27.911Z,89.5
2017-08-21T04:52:29.306Z,89.0
2017-08-21T04:53:30.703Z,88.8
2017-08-21T04:54:32.102Z,88.8
2017-08-21T04:55:33.500Z,88.7
2017-08-21T04:56:34.899Z,88.8
2017-08-21T04:57:36.298Z,89.2
2017-08-21T04:58:37.699Z,88.7
2017-08-21T04:59:39.099Z,89.4
2017-08-21T05:00:40.494Z,89.3
2017-08-21T05:01:41.895Z,89.2
2017-08-21T05:02:43.293Z,89.2
2017-08-21T05:03:44.692Z,89.5
2017-08-21T05:04:46.093Z,89.3
2017-08-21T05:05:47.495Z,89.4
2017-08-21T05:06:48.894Z,89.0
2017-08-21T05:07:50.292Z,89.2
2017-08-21T05:08:51.693Z,89.1
2017-08-21T05:09:53.093Z,89.2
2017-08-21T05:10:54.490Z,88.8
2017-08-21T05:11:55.899Z,89.0
2017-08-21T05:12:57.299Z,89.3
2017-08-21T05:13:58.696Z,89.2
2017-08-21T05:15:00.814Z,89.1
2017-08-21T05:16:02.212Z,89.2
2017-08-21T05:17:03.613Z,89.2
2017-08-21T05:18:05.006Z,88.8
2017-08-21T05:19:06.406Z,89.0
2017-08-21T05:20:07.809Z,89.8
2017-08-21T05:21:09.206Z,89.4
2017-08-21T05:22:10.604Z,90.1
2017-08-21T05:23:12.001Z,89.7
2017-08-21T05:24:13.399Z,89.7
2017-08-21T05:25:14.797Z,89.7
2017-08-21T05:26:16.196Z,89.8
2017-08-21T05:27:17.596Z,89.6
2017-08-21T05:28:19.039Z,89.6
2017-08-21T05:29:20.438Z,89.8
2017-08-21T05:30:21.833Z,89.9
2017-08-21T05:31:23.230Z,89.3
2017-08-21T05:32:24.631Z,89.8
2017-08-21T05:33:26.032Z,89.6
2017-08-21T05:34:27.434Z,90.2
2017-08-21T05:35:28.831Z,90.4
2017-08-21T05:36:30.229Z,90.4
2017-08-21T05:37:31.629Z,89.8
2017-08-21T05:38:33.024Z,89.2
2017-08-21T05:39:34.427Z,89.6
2017-08-21T05:40:35.828Z,90.0
2017-08-21T05:41:37.228Z,89.6
2017-08-21T05:42:38.627Z,89.7
2017-08-21T05:43:40.025Z,89.7
2017-08-21T05:44:41.427Z,89.9
2017-08-21T05:45:42.828Z,89.9
2017-08-21T05:46:44.226Z,90.2
2017-08-21T05:47:45.626Z,89.9
2017-08-21T05:48:47.029Z,89.1
2017-08-21T05:49:48.428Z,89.0
2017-08-21T05:50:49.826Z,89.2
2017-08-21T05:51:51.224Z,89.0
2017-08-21T05:52:52.621Z,89.2
2017-08-21T05:53:54.024Z,88.8
2017-08-21T05:54:55.423Z,88.9
2017-08-21T05:55:56.825Z,89.2
2017-08-21T05:56:58.221Z,89.5
2017-08-21T05:57:59.707Z,88.8
2017-08-21T05:59:01.108Z,88.8
2017-08-21T06:00:02.504Z,89.2
2017-08-21T06:01:03.906Z,88.7
2017-08-21T06:02:05.308Z,88.9
2017-08-21T06:03:06.706Z,88.7
2017-08-21T06:04:08.106Z,88.1
2017-08-21T06:05:09.463Z,88.1
2017-08-21T06:06:10.866Z,88.3
2017-08-21T06:07:12.265Z,87.6
2017-08-21T06:08:13.676Z,87.6
2017-08-21T06:09:15.078Z,87.6
2017-08-21T06:10:16.479Z,87.7
2017-08-21T06:11:17.878Z,87.5
2017-08-21T06:12:19.276Z,87.5
2017-08-21T06:13:20.675Z,87.7
2017-08-21T06:14:22.072Z,87.5
2017-08-21T06:15:23.473Z,87.4
2017-08-21T06:16:24.875Z,87.4
2017-08-21T06:17:26.277Z,87.9
2017-08-21T06:18:27.676Z,87.1
2017-08-21T06:19:29.078Z,87.8
2017-08-21T06:20:30.477Z,86.9
2017-08-21T06:21:31.879Z,87.5
2017-08-21T06:22:33.283Z,87.2
2017-08-21T06:23:34.684Z,87.2
2017-08-21T06:24:36.084Z,87.0
2017-08-21T06:25:37.488Z,87.1
2017-08-21T06:26:38.888Z,86.5
2017-08-21T06:27:40.289Z,87.2
2017-08-21T06:28:41.693Z,85.8
2017-08-21T06:29:43.093Z,86.0
2017-08-21T06:30:44.494Z,85.9
2017-08-21T06:31:45.896Z,85.9
2017-08-21T06:32:47.297Z,85.9
2017-08-21T06:33:48.698Z,86.1
2017-08-21T06:34:50.098Z,85.9
2017-08-21T06:35:51.503Z,86.1
2017-08-21T06:36:52.902Z,86.7
2017-08-21T06:37:54.307Z,86.3
2017-08-21T06:38:55.708Z,86.0
2017-08-21T06:39:57.105Z,85.3
2017-08-21T06:40:58.506Z,85.4
2017-08-21T06:41:59.904Z,85.5
2017-08-21T06:43:01.304Z,85.4
2017-08-21T06:44:02.726Z,84.6
2017-08-21T06:45:04.121Z,85.1
2017-08-21T06:46:05.523Z,84.8
2017-08-21T06:47:06.923Z,84.8
2017-08-21T06:48:08.320Z,84.7
2017-08-21T06:49:09.722Z,84.1
2017-08-21T06:50:11.119Z,84.7
2017-08-21T06:51:12.524Z,84.4
2017-08-21T06:52:13.924Z,84.5
2017-08-21T06:53:15.331Z,84.4
2017-08-21T06:54:16.744Z,84.4
2017-08-21T06:55:18.142Z,84.7
2017-08-21T06:56:19.541Z,85.3
2017-08-21T06:57:20.943Z,85.1
2017-08-21T06:58:22.345Z,84.6
2017-08-21T06:59:23.749Z,84.8
2017-08-21T07:00:25.153Z,83.2
2017-08-21T07:01:26.549Z,83.1
2017-08-21T07:02:27.951Z,83.2
2017-08-21T07:03:29.351Z,83.1
2017-08-21T07:04:30.750Z,83.0
2017-08-21T07:05:32.153Z,83.1
2017-08-21T07:06:33.556Z,83.3
2017-08-21T07:07:34.962Z,83.1
2017-08-21T07:08:36.360Z,83.8
2017-08-21T07:09:37.763Z,83.0
2017-08-21T07:10:39.162Z,83.3
2017-08-21T07:11:40.561Z,83.0
2017-08-21T07:12:41.965Z,82.3
2017-08-21T07:13:43.365Z,82.7
2017-08-21T07:14:44.769Z,81.1
2017-08-21T07:15:46.175Z,79.2
2017-08-21T07:16:47.569Z,79.6
2017-08-21T07:17:48.968Z,80.3
2017-08-21T07:18:50.368Z,80.1
2017-08-21T07:19:51.772Z,80.2
2017-08-21T07:20:53.178Z,79.4
2017-08-21T07:21:54.582Z,79.4
2017-08-21T07:22:55.984Z,79.6
2017-08-21T07:23:57.385Z,79.3
2017-08-21T07:24:58.786Z,80.0
2017-08-21T07:26:00.191Z,80.4
2017-08-21T07:27:01.590Z,80.8
2017-08-21T07:28:02.990Z,80.5
2017-08-21T07:29:04.395Z,81.2
2017-08-21T07:30:05.795Z,81.3
2017-08-21T07:31:07.195Z,80.7
2017-08-21T07:32:08.598Z,80.3
2017-08-21T07:33:10.001Z,79.7
2017-08-21T07:34:11.404Z,79.5
2017-08-21T07:35:12.808Z,79.5
2017-08-21T07:36:14.213Z,79.7
2017-08-21T07:37:15.615Z,79.1
2017-08-21T07:38:17.015Z,78.6
2017-08-21T07:39:18.418Z,78.3
2017-08-21T07:40:19.820Z,78.8
2017-08-21T07:41:21.222Z,79.0
2017-08-21T07:42:22.624Z,79.1
2017-08-21T07:43:24.040Z,78.1
2017-08-21T07:44:25.442Z,76.4
2017-08-21T07:45:26.844Z,75.5
2017-08-21T07:46:28.249Z,75.6
2017-08-21T07:47:29.657Z,75.2
2017-08-21T07:48:31.058Z,75.4
2017-08-21T07:49:32.467Z,74.7
2017-08-21T07:50:33.869Z,74.4
2017-08-21T07:51:35.273Z,74.0
2017-08-21T07:52:36.674Z,73.6
2017-08-21T07:53:38.079Z,74.2
2017-08-21T07:54:39.481Z,74.9
2017-08-21T07:55:40.887Z,74.6
2017-08-21T07:56:42.290Z,74.3
2017-08-21T07:57:43.695Z,73.6
2017-08-21T07:58:45.099Z,73.6
2017-08-21T07:59:46.505Z,73.2
2017-08-21T08:00:47.902Z,71.4
2017-08-21T08:01:49.303Z,69.3
2017-08-21T08:02:50.706Z,68.1
2017-08-21T08:03:52.109Z,67.4
2017-08-21T08:04:53.512Z,67.8
2017-08-21T08:05:54.915Z,67.8
2017-08-21T08:06:56.319Z,66.6
2017-08-21T08:07:57.720Z,65.6
2017-08-21T08:08:59.120Z,68.4
2017-08-21T08:10:00.525Z,69.7
2017-08-21T08:11:01.930Z,69.4
2017-08-21T08:12:03.332Z,70.0
2017-08-21T08:13:05.978Z,70.0
2017-08-21T08:14:07.382Z,70.7
2017-08-21T08:15:08.785Z,70.0
2017-08-21T08:16:10.188Z,70.7
2017-08-21T08:17:11.591Z,70.1
2017-08-21T08:18:12.994Z,69.6
2017-08-21T08:19:14.398Z,69.3
2017-08-21T08:20:15.801Z,68.5
2017-08-21T08:21:17.324Z,68.1
2017-08-21T08:22:18.726Z,68.1
2017-08-21T08:23:20.132Z,68.9
2017-08-21T08:24:21.583Z,68.4
2017-08-21T08:25:22.990Z,66.8
2017-08-21T08:26:24.393Z,67.3
2017-08-21T08:27:25.796Z,67.3
2017-08-21T08:28:27.196Z,66.6
2017-08-21T08:29:28.601Z,65.5
2017-08-21T08:30:30.003Z,65.4
2017-08-21T08:31:31.408Z,65.7
2017-08-21T08:32:32.813Z,65.1
2017-08-21T08:33:34.223Z,63.1
2017-08-21T08:34:35.627Z,63.8
2017-08-21T08:35:37.029Z,61.0
2017-08-21T08:36:38.431Z,62.3
2017-08-21T08:37:39.836Z,62.9
2017-08-21T08:38:41.243Z,65.0
2017-08-21T08:39:42.648Z,65.2
2017-08-21T08:40:44.054Z,65.2
2017-08-21T08:41:45.458Z,64.4
2017-08-21T08:42:46.867Z,64.3
2017-08-21T08:43:48.265Z,63.4
2017-08-21T08:44:49.666Z,60.4
2017-08-21T08:45:51.073Z,63.1
2017-08-21T08:46:52.477Z,63.4
2017-08-21T08:47:53.885Z,63.6
2017-08-21T08:48:55.289Z,62.8
2017-08-21T08:49:56.695Z,61.7
2017-08-21T08:50:58.097Z,60.1
2017-08-21T08:51:59.499Z,60.0
2017-08-21T08:53:00.902Z,59.9
2017-08-21T08:54:02.309Z,60.6
2017-08-21T08:55:03.712Z,58.9
2017-08-21T08:56:05.114Z,59.5
2017-08-21T08:57:06.517Z,59.4
2017-08-21T08:58:07.921Z,58.3
2017-08-21T08:59:09.326Z,61.5
2017-08-21T09:00:10.733Z,58.4
2017-08-21T09:01:12.135Z,58.5
2017-08-21T09:02:13.543Z,58.8
2017-08-21T09:03:14.949Z,60.2
2017-08-21T09:04:16.352Z,58.8
2017-08-21T09:05:17.757Z,57.4
2017-08-21T09:06:19.161Z,57.3
2017-08-21T09:07:20.566Z,57.8
2017-08-21T09:08:21.976Z,56.9
2017-08-21T09:09:23.375Z,53.3
2017-08-21T09:10:24.784Z,53.1
2017-08-21T09:11:26.184Z,53.4
2017-08-21T09:12:27.590Z,54.1
2017-08-21T09:13:28.996Z,54.9
2017-08-21T09:14:30.401Z,55.2
2017-08-21T09:15:31.809Z,54.0
2017-08-21T09:16:33.216Z,53.2
2017-08-21T09:17:34.621Z,53.6
2017-08-21T09:18:36.025Z,55.0
2017-08-21T09:19:37.438Z,55.4
2017-08-21T09:20:38.836Z,55.8
2017-08-21T09:21:40.241Z,55.8
2017-08-21T09:22:41.647Z,54.8
2017-08-21T09:23:43.055Z,54.1
2017-08-21T09:24:44.460Z,54.7
2017-08-21T09:25:45.863Z,54.5
2017-08-21T09:26:47.266Z,52.2
2017-08-21T09:27:48.673Z,51.6
2017-08-21T09:28:50.080Z,53.3
2017-08-21T09:29:51.483Z,53.6
2017-08-21T09:30:52.893Z,50.9
2017-08-21T09:31:54.292Z,50.4
2017-08-21T09:32:55.695Z,49.1
2017-08-21T09:33:57.101Z,48.3
2017-08-21T09:34:58.541Z,46.9
2017-08-21T09:35:59.948Z,47.0
2017-08-21T09:37:01.357Z,46.8
2017-08-21T09:38:02.761Z,46.6
2017-08-21T09:39:04.165Z,46.0
2017-08-21T09:40:05.569Z,45.0
2017-08-21T09:41:06.976Z,44.5
2017-08-21T09:42:08.381Z,45.4
2017-08-21T09:43:09.787Z,45.6
2017-08-21T09:44:11.192Z,45.4
2017-08-21T09:45:12.599Z,44.4
2017-08-21T09:46:14.001Z,45.9
2017-08-21T09:47:15.406Z,44.1
2017-08-21T09:48:16.811Z,44.0
2017-08-21T09:49:18.214Z,44.3
2017-08-21T09:50:19.619Z,45.0
2017-08-21T09:51:21.023Z,43.6
2017-08-21T09:52:22.430Z,44.2
2017-08-21T09:53:23.836Z,44.0
2017-08-21T09:54:25.241Z,44.0
2017-08-21T09:55:26.645Z,44.2
2017-08-21T09:56:28.059Z,43.7
2017-08-21T09:57:29.456Z,44.4
2017-08-21T09:58:30.864Z,43.9
2017-08-21T09:59:32.270Z,44.7
2017-08-21T10:00:33.630Z,45.3
2017-08-21T10:01:35.034Z,44.1
2017-08-21T10:02:36.445Z,44.6
2017-08-21T10:03:37.889Z,46.7
2017-08-21T14:41:48.188Z,36.1
2017-08-21T14:42:49.637Z,37.7
2017-08-21T14:44:12.132Z,35.6
2017-08-21T14:45:13.561Z,36.2
2017-08-21T14:46:35.101Z,36.4
2017-08-21T14:47:36.517Z,35.5
2017-08-21T14:48:58.031Z,35.6
2017-08-21T14:49:59.437Z,35.7
2017-08-21T14:51:21.954Z,33.6
2017-08-21T14:52:23.361Z,34.6
2017-08-21T14:53:45.862Z,35.6
2017-08-21T14:54:47.266Z,36.6
2017-08-21T14:56:08.819Z,35.5
2017-08-21T14:57:10.225Z,35.1
2017-08-21T14:58:31.749Z,35.5
2017-08-21T14:59:33.172Z,35.7
2017-08-21T15:00:55.735Z,35.5
2017-08-21T15:01:57.131Z,35.6
2017-08-21T15:03:18.665Z,34.3
2017-08-21T15:04:20.070Z,35.4
2017-08-21T15:05:42.800Z,35.4
2017-08-21T15:06:44.202Z,36.1
2017-08-21T15:08:06.725Z,35.8
2017-08-21T15:09:08.129Z,36.2
2017-08-21T15:10:30.627Z,37.8
2017-08-21T15:11:32.035Z,38.5
2017-08-21T15:12:53.575Z,39.2
2017-08-21T15:13:54.988Z,38.9
2017-08-21T15:15:17.502Z,38.3
2017-08-21T15:16:18.911Z,38.1
2017-08-21T15:17:40.445Z,38.0
2017-08-21T15:18:41.848Z,37.6
2017-08-21T15:20:03.372Z,37.6
2017-08-21T15:21:04.799Z,37.8
2017-08-21T15:22:27.307Z,37.3
2017-08-21T15:23:28.713Z,37.2
2017-08-21T15:24:51.244Z,39.6
2017-08-21T15:25:52.697Z,40.0
2017-08-21T15:27:15.202Z,40.2
2017-08-21T15:28:16.607Z,39.5
2017-08-21T15:29:38.144Z,39.7
2017-08-21T15:30:39.552Z,38.9
2017-08-21T15:32:01.107Z,39.5
2017-08-21T15:33:02.512Z,40.7
2017-08-21T15:34:24.051Z,40.9
2017-08-21T15:35:25.456Z,41.1
2017-08-21T15:36:46.967Z,41.1
2017-08-21T15:37:48.371Z,40.8
2017-08-21T15:39:10.871Z,40.9
2017-08-21T15:40:12.275Z,41.1
2017-08-21T15:41:33.813Z,41.3
2017-08-21T15:42:35.219Z,41.9
2017-08-21T15:43:57.715Z,41.8
2017-08-21T15:44:59.120Z,41.7
2017-08-21T15:46:20.656Z,41.6
2017-08-21T15:47:22.060Z,41.3
2017-08-21T15:48:43.567Z,41.5
2017-08-21T15:49:44.970Z,41.6
2017-08-21T15:51:07.491Z,41.2
2017-08-21T15:52:08.897Z,41.8
2017-08-21T15:53:30.405Z,42.2
2017-08-21T15:54:31.850Z,42.5
2017-08-21T15:55:53.396Z,42.0
2017-08-21T15:56:54.801Z,43.2
2017-08-21T15:58:16.308Z,42.6
2017-08-21T15:59:17.710Z,43.2
2017-08-21T16:00:39.221Z,43.5
2017-08-21T16:01:40.630Z,43.8
2017-08-21T16:03:02.156Z,44.3
2017-08-21T16:04:03.559Z,44.4
2017-08-21T16:05:25.064Z,44.2
2017-08-21T16:06:26.470Z,44.2
2017-08-21T16:07:48.000Z,44.3
2017-08-21T16:08:49.406Z,44.3
2017-08-21T16:10:10.912Z,44.1
2017-08-21T16:11:12.312Z,45.0
2017-08-21T16:12:35.385Z,44.6
2017-08-21T16:13:36.789Z,44.0
2017-08-21T16:14:59.287Z,44.6
2017-08-21T16:16:00.690Z,45.4
2017-08-21T16:17:22.197Z,45.2
2017-08-21T16:18:23.652Z,44.1
2017-08-21T16:19:46.182Z,45.1
2017-08-21T16:20:47.584Z,45.6
2017-08-21T16:22:10.152Z,46.1
2017-08-21T16:23:11.578Z,46.1
2017-08-21T16:24:12.983Z,46.4
2017-08-21T16:25:14.387Z,47.3
2017-08-21T16:26:15.795Z,47.3
2017-08-21T16:27:17.203Z,48.0
2017-08-21T16:28:18.613Z,48.4
2017-08-21T16:29:20.018Z,48.8
2017-08-21T16:30:21.421Z,49.0
2017-08-21T16:31:22.873Z,49.4
2017-08-21T16:32:24.282Z,49.1
2017-08-21T16:33:25.683Z,48.3
2017-08-21T16:34:27.090Z,47.9
2017-08-21T16:35:28.511Z,48.3
2017-08-21T16:36:29.921Z,48.9
2017-08-21T16:37:31.333Z,49.1
2017-08-21T16:38:32.728Z,49.4
2017-08-21T16:39:34.131Z,49.3
2017-08-21T16:40:35.532Z,49.3
2017-08-21T16:41:36.940Z,49.0
2017-08-21T16:42:38.389Z,49.1
2017-08-21T16:43:39.797Z,49.4
2017-08-21T16:44:41.198Z,49.1
2017-08-21T16:45:42.603Z,49.1
2017-08-21T16:46:44.008Z,48.9
2017-08-21T16:47:45.412Z,47.9
2017-08-21T16:48:46.819Z,48.0
2017-08-21T16:49:48.225Z,48.4
2017-08-21T16:50:49.640Z,48.8
2017-08-21T16:51:51.052Z,49.3
2017-08-21T16:52:52.476Z,50.5
2017-08-21T16:53:53.883Z,49.4
2017-08-21T16:54:55.288Z,50.2
2017-08-21T16:55:56.695Z,49.9
2017-08-21T16:56:58.108Z,49.4
2017-08-21T16:57:59.514Z,49.5
2017-08-21T16:59:00.920Z,48.9
2017-08-21T17:00:02.379Z,50.1
2017-08-21T17:01:03.792Z,50.1
2017-08-21T17:02:05.203Z,50.2
2017-08-21T17:03:06.607Z,49.2
2017-08-21T17:04:08.056Z,49.2
2017-08-21T17:05:09.494Z,49.3
2017-08-21T17:06:10.892Z,49.2
2017-08-21T17:07:12.297Z,49.4
2017-08-21T17:08:13.815Z,49.3
2017-08-21T17:09:15.273Z,49.4
2017-08-21T17:10:16.675Z,49.4
2017-08-21T17:11:18.086Z,49.6
2017-08-21T17:12:19.533Z,50.2
2017-08-21T17:13:20.952Z,51.9
2017-08-21T17:14:22.354Z,52.4
2017-08-21T17:15:23.758Z,52.6
2017-08-21T17:16:25.166Z,52.6
2017-08-21T17:17:26.569Z,51.4
2017-08-21T17:18:27.974Z,51.0
2017-08-21T17:19:29.378Z,51.1
2017-08-21T17:20:30.782Z,49.9
2017-08-21T17:21:32.185Z,48.7
2017-08-21T17:22:33.587Z,48.6
2017-08-21T17:23:34.986Z,49.0
2017-08-21T17:24:36.398Z,51.1
2017-08-21T17:25:37.813Z,50.4
2017-08-21T17:26:39.220Z,51.1
2017-08-21T17:27:40.621Z,51.5
2017-08-21T17:28:42.037Z,52.4
2017-08-21T17:29:43.439Z,53.0
2017-08-21T17:30:44.841Z,53.7
2017-08-21T17:31:46.250Z,53.2
2017-08-21T17:32:47.721Z,52.9
2017-08-21T17:33:49.128Z,53.3
2017-08-21T17:34:50.528Z,53.8
2017-08-21T17:35:51.930Z,52.5
2017-08-21T17:36:53.331Z,52.9
2017-08-21T17:37:54.734Z,52.4
2017-08-21T17:38:56.139Z,53.0
2017-08-21T17:39:57.543Z,54.4
2017-08-21T17:40:58.948Z,53.7
2017-08-21T17:42:00.384Z,52.1
2017-08-21T17:43:01.835Z,53.7
2017-08-21T17:44:03.263Z,53.6
2017-08-21T17:45:04.665Z,54.2
2017-08-21T17:46:06.066Z,53.1
2017-08-21T17:47:07.482Z,52.8
2017-08-21T17:48:08.885Z,53.2
2017-08-21T17:49:10.334Z,52.7
2017-08-21T17:50:11.833Z,52.5
2017-08-21T17:51:13.225Z,52.7
2017-08-21T17:52:14.650Z,52.3
2017-08-21T17:53:16.055Z,52.2
2017-08-21T17:54:17.462Z,52.4
2017-08-21T17:55:18.876Z,52.4
2017-08-21T17:56:20.279Z,52.8
2017-08-21T17:57:21.690Z,53.3
2017-08-21T17:58:23.090Z,53.6
2017-08-21T17:59:24.549Z,54.3
2017-08-21T18:00:25.959Z,54.5
2017-08-21T18:01:27.407Z,54.9
2017-08-21T18:02:28.818Z,56.2
2017-08-21T18:03:30.220Z,56.3
2017-08-21T18:04:31.621Z,56.2
2017-08-21T18:05:33.024Z,55.5
2017-08-21T18:06:34.425Z,55.3
2017-08-21T18:07:35.835Z,55.3
2017-08-21T18:08:37.785Z,55.5
2017-08-21T18:09:39.182Z,55.9
2017-08-21T18:10:40.585Z,56.1
2017-08-21T18:11:41.989Z,56.0
2017-08-21T18:12:43.392Z,56.8
2017-08-21T18:13:44.795Z,57.5
2017-08-21T18:14:46.220Z,57.3
2017-08-21T18:15:47.650Z,57.5
2017-08-21T18:16:49.051Z,57.3
2017-08-21T18:17:50.453Z,57.2
2017-08-21T18:18:51.853Z,57.3
2017-08-21T18:19:53.300Z,57.2
2017-08-21T18:20:54.701Z,57.0
2017-08-21T18:21:56.109Z,57.1
2017-08-21T18:22:57.511Z,57.1
2017-08-21T18:23:58.915Z,57.3
2017-08-21T18:25:00.316Z,56.9
2017-08-21T18:26:01.714Z,57.4
2017-08-21T18:27:03.118Z,57.1
2017-08-21T18:28:04.516Z,57.5
2017-08-21T18:29:05.921Z,58.4